Time;durP1;ratioP1;P1;durP2;ratioP2;P2;SDS_P1;SDS_P2;PMS_P1;PMS_P2;Temp;Humidity;BMP_temperature;BMP_pressure;BME280_temperature;BME280_humidity;BME280_pressure;Samples;Min_cycle;Max_cycle;Signal;HPM_P1;HPM_P2
2022/05/05 00:02:10;;;;;;;10.87;8.17;;;23.60;54.80;;;;;;5004624;28;20428;-84
2022/05/05 00:04:37;;;;;;;13.40;8.43;;;23.60;54.80;;;;;;5011173;28;20421;-84
2022/05/05 00:07:04;;;;;;;9.53;7.13;;;23.60;54.80;;;;;;5011270;28;20933;-84
2022/05/05 00:09:39;;;;;;;9.43;7.73;;;23.60;54.80;;;;;;5011493;28;20422;-84
2022/05/05 00:14:53;;;;;;;11.27;7.43;;;23.60;54.80;;;;;;4990153;28;20450;-84
2022/05/05 00:17:38;;;;;;;11.07;7.83;;;23.60;54.80;;;;;;5011035;28;20392;-84
2022/05/05 00:20:07;;;;;;;9.13;7.47;;;23.60;54.80;;;;;;5011418;28;20421;-84
2022/05/05 00:22:33;;;;;;;10.90;7.87;;;23.60;54.80;;;;;;5009554;28;20430;-84
2022/05/05 00:24:59;;;;;;;10.10;7.60;;;23.60;54.80;;;;;;5010406;28;20423;-84
2022/05/05 00:27:28;;;;;;;9.50;7.07;;;23.60;54.80;;;;;;4994477;28;20444;-84
2022/05/05 00:29:54;;;;;;;11.20;7.90;;;23.60;54.80;;;;;;5010630;28;20428;-84
2022/05/05 00:32:24;;;;;;;13.80;8.33;;;23.60;54.80;;;;;;5010208;28;20417;-84
2022/05/05 00:34:50;;;;;;;12.70;8.13;;;23.60;54.80;;;;;;5011123;28;20416;-84
2022/05/05 00:37:16;;;;;;;11.37;8.20;;;23.60;54.70;;;;;;5010119;28;20423;-84
2022/05/05 00:39:44;;;;;;;11.30;7.60;;;23.60;54.70;;;;;;4999838;28;20417;-84
2022/05/05 00:42:11;;;;;;;9.93;7.00;;;23.60;54.80;;;;;;4997760;28;20416;-84
2022/05/05 00:44:38;;;;;;;11.53;7.40;;;23.60;54.70;;;;;;5010439;28;20422;-84
2022/05/05 00:47:05;;;;;;;8.80;6.80;;;23.60;54.70;;;;;;5011027;28;20405;-84
2022/05/05 00:49:31;;;;;;;9.27;7.73;;;23.60;54.70;;;;;;5010746;28;20486;-84
2022/05/05 00:51:59;;;;;;;8.77;7.27;;;23.60;54.70;;;;;;5010068;28;20424;-84
2022/05/05 00:54:26;;;;;;;9.23;6.90;;;23.60;54.70;;;;;;5011980;28;20421;-84
2022/05/05 00:56:52;;;;;;;9.07;7.80;;;23.60;54.70;;;;;;5010855;28;20486;-84
2022/05/05 00:59:19;;;;;;;9.90;7.37;;;23.60;54.70;;;;;;5010919;28;20443;-84
2022/05/05 01:01:45;;;;;;;9.27;6.60;;;23.60;54.70;;;;;;5009885;28;20501;-84
2022/05/05 01:04:11;;;;;;;7.00;6.17;;;23.60;54.70;;;;;;5025670;28;20416;-84
2022/05/05 01:06:38;;;;;;;9.23;6.77;;;23.60;54.70;;;;;;5008499;28;20905;-84
2022/05/05 01:09:05;;;;;;;9.17;6.80;;;23.60;54.70;;;;;;4990749;28;20409;-84
2022/05/05 01:11:31;;;;;;;8.73;7.00;;;23.60;54.70;;;;;;4993035;28;20480;-84
2022/05/05 01:14:00;;;;;;;10.87;6.23;;;23.60;54.70;;;;;;5011124;28;20412;-84
2022/05/05 01:16:26;;;;;;;6.80;5.60;;;23.60;54.70;;;;;;5009519;28;20485;-84
2022/05/05 01:18:55;;;;;;;8.30;6.73;;;23.60;54.70;;;;;;5009671;28;20440;-84
2022/05/05 01:21:23;;;;;;;8.07;6.10;;;23.60;54.70;;;;;;4994456;28;20459;-84
2022/05/05 01:23:56;;;;;;;10.07;6.97;;;23.60;54.70;;;;;;5006830;28;20463;-84
2022/05/05 01:29:14;;;;;;;7.80;6.73;;;23.60;54.70;;;;;;4991357;28;20488;-84
2022/05/05 01:31:40;;;;;;;9.60;7.73;;;23.50;54.70;;;;;;4993543;28;20413;-84
2022/05/05 01:34:07;;;;;;;8.37;6.60;;;23.50;54.70;;;;;;5009604;28;20448;-84
2022/05/05 01:36:35;;;;;;;10.23;7.47;;;23.50;54.70;;;;;;5010655;28;20484;-84
2022/05/05 01:39:03;;;;;;;8.33;6.10;;;23.50;54.70;;;;;;5010593;28;20420;-84
2022/05/05 01:41:30;;;;;;;9.37;7.10;;;23.50;54.70;;;;;;5000936;28;20433;-84
2022/05/05 01:43:58;;;;;;;10.00;7.10;;;23.50;54.70;;;;;;4989860;28;20480;-84
2022/05/05 01:46:24;;;;;;;7.50;6.30;;;23.50;54.70;;;;;;4975024;28;20841;-84
2022/05/05 01:48:51;;;;;;;10.33;7.67;;;23.50;54.70;;;;;;4989982;28;20425;-84
2022/05/05 01:51:17;;;;;;;8.47;6.03;;;23.50;54.70;;;;;;4973940;28;20463;-84
2022/05/05 01:53:43;;;;;;;8.57;6.93;;;23.50;54.70;;;;;;4990013;28;20449;-84
2022/05/05 01:56:15;;;;;;;9.93;6.40;;;23.50;54.70;;;;;;4974265;28;20241;-84
2022/05/05 01:58:44;;;;;;;9.23;6.87;;;23.50;54.70;;;;;;4989496;28;20424;-84
2022/05/05 02:01:11;;;;;;;7.37;6.17;;;23.50;54.80;;;;;;4990306;28;20464;-84
2022/05/05 02:03:37;;;;;;;10.80;6.70;;;23.50;54.70;;;;;;4990577;28;20420;-84
2022/05/05 02:06:07;;;;;;;9.30;7.00;;;23.50;54.80;;;;;;4991812;28;20441;-84
2022/05/05 02:08:35;;;;;;;9.27;5.90;;;23.50;54.80;;;;;;4990531;28;20414;-84
2022/05/05 02:11:05;;;;;;;7.93;6.50;;;23.50;54.80;;;;;;5009496;28;20419;-84
2022/05/05 02:13:36;;;;;;;8.20;5.90;;;23.50;54.80;;;;;;5010479;28;20420;-84
2022/05/05 02:16:08;;;;;;;7.57;6.10;;;23.50;54.80;;;;;;5010139;28;20460;-84
2022/05/05 02:18:35;;;;;;;8.33;6.50;;;23.50;54.80;;;;;;5013754;28;20431;-84
2022/05/05 02:21:02;;;;;;;9.90;7.03;;;23.50;54.80;;;;;;4996741;28;20458;-83
2022/05/05 02:23:28;;;;;;;8.37;6.73;;;23.50;54.80;;;;;;5012872;28;20404;-84
2022/05/05 02:25:58;;;;;;;8.10;6.40;;;23.50;54.80;;;;;;5013888;28;20428;-84
2022/05/05 02:28:32;;;;;;;8.57;6.10;;;23.50;54.80;;;;;;5013138;28;20494;-84
2022/05/05 02:30:58;;;;;;;8.70;7.10;;;23.50;54.80;;;;;;4997755;28;20422;-84
2022/05/05 02:33:29;;;;;;;7.27;6.43;;;23.50;54.80;;;;;;5013658;28;20546;-84
2022/05/05 02:38:46;;;;;;;8.60;6.80;;;23.50;54.80;;;;;;5013770;28;20419;-84
2022/05/05 02:41:14;;;;;;;6.90;5.70;;;23.50;54.80;;;;;;5018798;28;20412;-83
2022/05/05 02:43:44;;;;;;;9.10;6.30;;;23.50;54.70;;;;;;5007498;28;20413;-84
2022/05/05 02:46:12;;;;;;;7.30;5.53;;;23.50;54.70;;;;;;4992741;28;20433;-84
2022/05/05 02:48:39;;;;;;;8.60;5.80;;;23.50;54.70;;;;;;4993901;28;20421;-84
2022/05/05 02:51:11;;;;;;;7.40;5.70;;;23.50;54.70;;;;;;4993202;28;20456;-84
2022/05/05 02:56:24;;;;;;;8.33;6.23;;;23.50;54.70;;;;;;4993641;28;20460;-84
2022/05/05 02:58:53;;;;;;;7.83;6.10;;;23.50;54.70;;;;;;4992769;28;20839;-83
2022/05/05 03:01:19;;;;;;;6.40;5.27;;;23.50;54.70;;;;;;4993132;28;20911;-84
2022/05/05 03:03:52;;;;;;;6.20;5.27;;;23.50;54.70;;;;;;4992463;28;20420;-84
2022/05/05 03:06:18;;;;;;;7.60;5.50;;;23.50;54.80;;;;;;4993336;28;20167;-84
2022/05/05 03:08:47;;;;;;;6.50;5.77;;;23.50;54.70;;;;;;4993474;28;20416;-84
2022/05/05 03:11:13;;;;;;;7.97;5.40;;;23.50;54.70;;;;;;4992213;28;20177;-84
2022/05/05 03:13:39;;;;;;;7.23;5.80;;;23.50;54.70;;;;;;4993434;28;20424;-84
2022/05/05 03:16:09;;;;;;;7.00;6.03;;;23.50;54.70;;;;;;4993332;28;20522;-84
2022/05/05 03:18:35;;;;;;;7.27;5.37;;;23.50;54.70;;;;;;4976047;28;20422;-84
2022/05/05 03:21:01;;;;;;;7.10;5.47;;;23.50;54.70;;;;;;4992068;28;20421;-84
2022/05/05 03:23:30;;;;;;;6.07;5.10;;;23.50;54.70;;;;;;4992866;28;20233;-84
2022/05/05 03:25:56;;;;;;;7.83;5.47;;;23.50;54.70;;;;;;4993356;28;20425;-84
2022/05/05 03:28:31;;;;;;;6.70;5.00;;;23.50;54.70;;;;;;4992396;28;20400;-84
2022/05/05 03:30:57;;;;;;;6.90;5.83;;;23.40;54.60;;;;;;4992242;28;20471;-84
2022/05/05 03:33:25;;;;;;;5.87;4.87;;;23.40;54.60;;;;;;4992345;28;20413;-84
2022/05/05 03:35:53;;;;;;;5.97;5.37;;;23.50;54.70;;;;;;4999815;28;20479;-84
2022/05/05 03:38:20;;;;;;;7.40;5.90;;;23.40;54.60;;;;;;5012779;28;20408;-84
2022/05/05 03:40:48;;;;;;;7.50;5.47;;;23.40;54.60;;;;;;5012238;28;20428;-84
2022/05/05 03:43:18;;;;;;;6.77;5.00;;;23.40;54.60;;;;;;5012962;28;20434;-84
2022/05/05 03:45:44;;;;;;;8.43;6.70;;;23.40;54.60;;;;;;4996362;28;20429;-83
2022/05/05 03:48:13;;;;;;;7.90;5.80;;;23.40;54.60;;;;;;5012915;28;20431;-83
2022/05/05 03:50:39;;;;;;;6.47;5.20;;;23.40;54.60;;;;;;5008555;28;20455;-83
2022/05/05 03:53:06;;;;;;;6.03;4.77;;;23.40;54.60;;;;;;4976010;28;20433;-83
2022/05/05 03:55:33;;;;;;;7.13;5.60;;;23.40;54.60;;;;;;4991860;28;20468;-83
2022/05/05 03:58:00;;;;;;;8.63;6.30;;;23.40;54.60;;;;;;5000655;28;20420;-84
2022/05/05 04:00:29;;;;;;;5.60;5.00;;;23.40;54.60;;;;;;5011314;28;20456;-84
2022/05/05 04:05:40;;;;;;;5.47;4.70;;;23.40;54.60;;;;;;5012400;28;20480;-84
2022/05/05 04:08:22;;;;;;;7.73;6.00;;;23.40;54.60;;;;;;5011548;28;20427;-84
2022/05/05 04:10:48;;;;;;;7.80;5.17;;;23.40;54.60;;;;;;5012887;28;20506;-83
2022/05/05 04:13:18;;;;;;;6.97;5.37;;;23.40;54.60;;;;;;5012048;28;20404;-84
2022/05/05 04:15:45;;;;;;;6.87;6.17;;;23.40;54.60;;;;;;5011173;28;20456;-83
2022/05/05 04:18:11;;;;;;;7.50;5.90;;;23.40;54.60;;;;;;4994560;28;20428;-84
2022/05/05 04:20:38;;;;;;;6.27;5.40;;;23.40;54.70;;;;;;5016572;28;20423;-84
2022/05/05 04:23:04;;;;;;;6.43;5.67;;;23.40;54.60;;;;;;5011007;28;20438;-83
2022/05/05 04:25:34;;;;;;;6.33;5.20;;;23.40;54.60;;;;;;5012316;28;20431;-84
2022/05/05 04:28:00;;;;;;;7.87;6.00;;;23.40;54.60;;;;;;5011504;28;20907;-83
2022/05/05 04:30:31;;;;;;;5.77;4.80;;;23.40;54.60;;;;;;5011678;28;20428;-84
2022/05/05 04:32:58;;;;;;;8.67;6.33;;;23.40;54.60;;;;;;5011830;28;20405;-84
2022/05/05 04:35:24;;;;;;;7.30;5.20;;;23.40;54.60;;;;;;5010765;28;20460;-85
2022/05/05 04:37:51;;;;;;;8.30;6.47;;;23.40;54.60;;;;;;4994581;28;20463;-84
2022/05/05 04:40:19;;;;;;;8.40;5.63;;;23.40;54.60;;;;;;5011300;28;20425;-83
2022/05/05 04:42:46;;;;;;;6.60;5.30;;;23.40;54.60;;;;;;5012602;28;20433;-83
2022/05/05 04:45:13;;;;;;;6.10;5.13;;;23.40;54.60;;;;;;5011140;28;20523;-83
2022/05/05 04:47:40;;;;;;;6.33;5.23;;;23.40;54.70;;;;;;5012184;28;20424;-84
2022/05/05 04:50:14;;;;;;;6.70;4.83;;;23.40;54.70;;;;;;5011876;28;20414;-83
2022/05/05 04:52:40;;;;;;;6.70;5.10;;;23.40;54.70;;;;;;5014256;28;20488;-83
2022/05/05 04:55:10;;;;;;;5.83;4.87;;;23.40;54.80;;;;;;5011459;28;20468;-83
2022/05/05 04:57:37;;;;;;;6.63;5.37;;;23.40;54.80;;;;;;5011464;28;20409;-83
2022/05/05 05:00:07;;;;;;;6.97;5.20;;;23.40;54.80;;;;;;5010945;28;20431;-83
2022/05/05 05:02:35;;;;;;;5.47;4.77;;;23.40;54.80;;;;;;5010489;28;20428;-84
2022/05/05 05:05:09;;;;;;;7.20;5.37;;;23.40;54.80;;;;;;4994453;28;20436;-84
2022/05/05 05:07:36;;;;;;;5.50;4.47;;;23.40;54.80;;;;;;5007434;28;20462;-86
2022/05/05 05:10:07;;;;;;;7.97;6.37;;;23.40;54.90;;;;;;4994646;28;20467;-83
2022/05/05 05:12:34;;;;;;;6.50;4.90;;;23.40;54.90;;;;;;5011211;28;20416;-83
2022/05/05 05:15:02;;;;;;;7.00;5.40;;;23.40;54.90;;;;;;5010699;28;20450;-83
2022/05/05 05:17:28;;;;;;;6.20;4.20;;;23.40;54.80;;;;;;5011578;28;20404;-83
2022/05/05 05:19:56;;;;;;;7.33;5.10;;;23.40;54.90;;;;;;5011973;28;20417;-83
2022/05/05 05:22:23;;;;;;;6.10;5.50;;;23.40;54.90;;;;;;4995241;28;20428;-83
2022/05/05 05:24:54;;;;;;;6.40;5.50;;;23.40;54.90;;;;;;4978563;28;20428;-83
2022/05/05 05:27:20;;;;;;;5.87;4.70;;;23.40;54.90;;;;;;4996153;28;20416;-83
2022/05/05 05:29:49;;;;;;;7.80;4.83;;;23.40;54.90;;;;;;5011346;28;20424;-83
2022/05/05 05:32:16;;;;;;;5.70;5.00;;;23.40;54.90;;;;;;5013098;28;20420;-83
2022/05/05 05:34:47;;;;;;;7.60;4.70;;;23.40;54.90;;;;;;5011238;28;20477;-83
2022/05/05 05:37:13;;;;;;;4.93;4.40;;;23.40;54.90;;;;;;4994668;28;20550;-83
2022/05/05 05:39:41;;;;;;;5.57;5.00;;;23.40;54.90;;;;;;5011882;28;20405;-83
2022/05/05 05:42:08;;;;;;;6.20;4.87;;;23.40;54.80;;;;;;5011601;28;20425;-83
2022/05/05 05:44:39;;;;;;;4.83;4.10;;;23.40;54.90;;;;;;5027591;28;20424;-83
2022/05/05 05:47:10;;;;;;;5.90;5.20;;;23.40;54.90;;;;;;4995655;28;20423;-83
2022/05/05 05:49:39;;;;;;;5.53;5.03;;;23.40;54.90;;;;;;5011073;28;20440;-83
2022/05/05 05:52:06;;;;;;;6.67;4.80;;;23.40;54.90;;;;;;5013502;28;20428;-83
2022/05/05 05:54:34;;;;;;;6.27;5.10;;;23.40;54.90;;;;;;5014093;28;20438;-83
2022/05/05 05:56:59;;;;;;;6.20;5.30;;;23.40;54.90;;;;;;5013901;28;20463;-83
2022/05/05 05:59:30;;;;;;;6.20;5.03;;;23.40;54.90;;;;;;5014806;28;20439;-83
2022/05/05 06:04:46;;;;;;;6.13;4.13;;;23.40;54.90;;;;;;5014978;28;20396;-83
2022/05/05 06:07:12;;;;;;;5.43;4.50;;;23.40;54.90;;;;;;5014754;28;20438;-83
2022/05/05 06:13:00;;;;;;;6.67;4.80;;;23.40;54.90;;;;;;4995452;28;20415;-83
2022/05/05 06:15:28;;;;;;;7.20;4.20;;;23.40;54.90;;;;;;5010886;28;20464;-83
2022/05/05 06:17:56;;;;;;;6.53;5.00;;;23.40;55.00;;;;;;4994917;28;21025;-83
2022/05/05 06:20:29;;;;;;;6.40;4.87;;;23.40;55.00;;;;;;4995014;28;20413;-83
2022/05/05 06:23:01;;;;;;;5.90;4.40;;;23.40;55.00;;;;;;4994589;28;20409;-83
2022/05/05 06:25:32;;;;;;;6.03;4.80;;;23.40;54.90;;;;;;5011814;28;20428;-83
2022/05/05 06:28:00;;;;;;;5.17;4.50;;;23.40;54.90;;;;;;5010792;28;20433;-83
2022/05/05 06:30:28;;;;;;;5.50;4.70;;;23.40;54.90;;;;;;4995165;28;20417;-83
2022/05/05 06:32:56;;;;;;;6.50;4.77;;;23.40;54.90;;;;;;4995244;28;20427;-83
2022/05/05 06:35:26;;;;;;;5.27;4.40;;;23.40;54.90;;;;;;4995537;28;20460;-83
2022/05/05 06:37:52;;;;;;;6.47;5.13;;;23.40;54.90;;;;;;5006917;28;20416;-83
2022/05/05 06:40:24;;;;;;;6.20;5.00;;;23.40;55.00;;;;;;5013539;28;20446;-83
2022/05/05 06:42:51;;;;;;;8.27;4.47;;;23.40;54.90;;;;;;5014885;28;20431;-83
2022/05/05 06:45:19;;;;;;;4.63;3.97;;;23.40;54.90;;;;;;4991246;28;20919;-83
2022/05/05 06:47:48;;;;;;;6.57;4.87;;;23.40;54.90;;;;;;4994932;28;20445;-83
2022/05/05 06:50:16;;;;;;;5.50;4.53;;;23.50;54.90;;;;;;4978287;28;20405;-83
2022/05/05 06:52:46;;;;;;;5.87;4.40;;;23.50;54.90;;;;;;4991146;28;20425;-83
2022/05/05 06:55:23;;;;;;;6.80;4.97;;;23.50;54.90;;;;;;4995094;28;20467;-82
2022/05/05 06:57:51;;;;;;;5.73;4.17;;;23.50;54.90;;;;;;4992463;28;20413;-82
2022/05/05 07:00:18;;;;;;;5.93;4.50;;;23.50;54.90;;;;;;4978491;28;20447;-82
2022/05/05 07:02:44;;;;;;;6.43;4.20;;;23.50;54.90;;;;;;4994103;28;20421;-82
2022/05/05 07:05:27;;;;;;;5.03;4.43;;;23.50;54.90;;;;;;4995130;28;20413;-83
2022/05/05 07:07:53;;;;;;;5.23;4.73;;;23.50;54.90;;;;;;4995351;28;20370;-83
2022/05/05 07:13:20;;;;;;;5.10;4.20;;;23.50;54.90;;;;;;5013805;28;20391;-82
2022/05/05 07:15:48;;;;;;;4.73;4.17;;;23.50;54.90;;;;;;5014161;28;20463;-82
2022/05/05 07:18:17;;;;;;;4.87;4.37;;;23.50;54.90;;;;;;5014242;28;20404;-82
2022/05/05 07:20:50;;;;;;;6.37;3.90;;;23.50;54.90;;;;;;5012995;28;20427;-82
2022/05/05 07:23:40;;;;;;;4.80;4.10;;;23.50;54.90;;;;;;5008212;28;20436;-82
2022/05/05 07:26:14;;;;;;;5.33;4.20;;;23.50;54.90;;;;;;4991862;28;20444;-82
2022/05/05 07:28:45;;;;;;;5.27;4.20;;;23.50;54.90;;;;;;4993599;28;20413;-83
2022/05/05 07:31:11;;;;;;;5.30;4.53;;;23.50;54.90;;;;;;4993613;28;20421;-83
2022/05/05 07:33:37;;;;;;;6.47;3.97;;;23.50;54.90;;;;;;4977373;28;20429;-83
2022/05/05 07:36:04;;;;;;;4.90;3.90;;;23.50;54.90;;;;;;4993223;28;20490;-83
2022/05/05 07:38:30;;;;;;;5.70;4.27;;;23.50;54.90;;;;;;4976969;28;20211;-82
2022/05/05 07:40:57;;;;;;;5.83;4.53;;;23.50;54.90;;;;;;4993410;28;20417;-82
2022/05/05 07:43:23;;;;;;;4.50;4.00;;;23.50;54.90;;;;;;5044345;28;20405;-83
2022/05/05 07:45:55;;;;;;;5.47;4.90;;;23.50;54.80;;;;;;4993176;28;20433;-83
2022/05/05 07:48:24;;;;;;;6.83;4.90;;;23.50;54.80;;;;;;4994326;28;20382;-83
2022/05/05 07:50:50;;;;;;;4.80;4.30;;;23.50;54.80;;;;;;4993663;28;20444;-83
2022/05/05 07:53:16;;;;;;;5.10;4.03;;;23.50;54.80;;;;;;4993069;28;20421;-83
2022/05/05 07:55:44;;;;;;;5.17;3.83;;;23.50;54.80;;;;;;4993689;28;20202;-83
2022/05/05 07:58:11;;;;;;;6.70;4.33;;;23.50;54.80;;;;;;4992810;28;20794;-83
2022/05/05 08:00:38;;;;;;;5.70;4.30;;;23.50;54.80;;;;;;4993500;28;20520;-83
2022/05/05 08:03:06;;;;;;;4.80;4.23;;;23.50;54.70;;;;;;4994076;28;20418;-83
2022/05/05 08:05:33;;;;;;;4.97;4.30;;;23.50;54.70;;;;;;5044191;28;20436;-83
2022/05/05 08:08:03;;;;;;;5.23;4.33;;;23.50;54.70;;;;;;5007854;28;20447;-83
2022/05/05 08:10:35;;;;;;;4.70;4.20;;;23.50;54.70;;;;;;5012943;28;20428;-83
2022/05/05 08:13:06;;;;;;;3.90;3.20;;;23.50;54.70;;;;;;5027428;28;20452;-83
2022/05/05 08:15:38;;;;;;;4.70;3.70;;;23.50;54.70;;;;;;5018671;28;20482;-83
2022/05/05 08:18:07;;;;;;;4.77;3.70;;;23.50;54.70;;;;;;5009484;28;20413;-83
2022/05/05 08:20:52;;;;;;;4.40;3.60;;;23.50;54.70;;;;;;4997979;28;20428;-83
2022/05/05 08:23:20;;;;;;;5.83;4.10;;;23.50;54.60;;;;;;4996896;28;20480;-83
2022/05/05 08:28:36;;;;;;;5.53;3.93;;;23.60;54.70;;;;;;5012502;28;20437;-82
2022/05/05 08:31:04;;;;;;;5.50;3.50;;;23.50;54.60;;;;;;5011817;28;20424;-82
2022/05/05 08:33:33;;;;;;;4.40;3.83;;;23.50;54.60;;;;;;5019418;28;20436;-82
2022/05/05 08:36:25;;;;;;;5.77;4.03;;;23.60;54.70;;;;;;5012004;28;20497;-82
2022/05/05 08:38:51;;;;;;;4.27;3.30;;;23.60;54.70;;;;;;5012017;28;20529;-82
2022/05/05 08:41:17;;;;;;;5.03;4.03;;;23.60;54.70;;;;;;5011515;28;20419;-83
2022/05/05 08:43:44;;;;;;;5.47;4.60;;;23.60;54.70;;;;;;5012518;28;20779;-83
2022/05/05 08:46:22;;;;;;;4.30;3.50;;;23.60;54.60;;;;;;4994790;28;20465;-83
2022/05/05 08:48:51;;;;;;;5.33;4.00;;;23.60;54.70;;;;;;4977033;28;20418;-83
2022/05/05 08:51:20;;;;;;;3.73;3.17;;;23.60;54.70;;;;;;4992206;28;20433;-83
2022/05/05 08:53:53;;;;;;;4.03;3.63;;;23.60;54.70;;;;;;4992273;28;20410;-83
2022/05/05 08:56:23;;;;;;;5.93;4.13;;;23.60;54.60;;;;;;5011331;28;20474;-83
2022/05/05 08:59:03;;;;;;;4.97;3.73;;;23.60;54.60;;;;;;4997159;28;20776;-83
2022/05/05 09:01:51;;;;;;;5.90;3.90;;;23.60;54.60;;;;;;5007049;28;20435;-83
2022/05/05 09:04:21;;;;;;;4.37;3.70;;;23.60;54.60;;;;;;5012750;28;20392;-83
2022/05/05 09:06:53;;;;;;;5.00;4.00;;;23.60;54.70;;;;;;4996026;28;20428;-84
2022/05/05 09:09:24;;;;;;;4.60;3.53;;;23.60;54.60;;;;;;5012103;28;20434;-83
2022/05/05 09:12:35;;;;;;;4.20;3.60;;;23.60;54.70;;;;;;5012492;28;20380;-83
2022/05/05 09:15:14;;;;;;;4.40;3.70;;;23.60;54.60;;;;;;4991615;28;20417;-83
2022/05/05 09:17:42;;;;;;;4.47;3.10;;;23.60;54.60;;;;;;4990656;28;20481;-83
2022/05/05 09:20:17;;;;;;;4.47;3.80;;;23.60;54.70;;;;;;4975235;28;20466;-83
2022/05/05 09:22:52;;;;;;;4.80;3.20;;;23.60;54.70;;;;;;4976959;28;20522;-83
2022/05/05 09:25:20;;;;;;;4.17;3.10;;;23.60;54.70;;;;;;4975412;28;20492;-82
2022/05/05 09:27:54;;;;;;;5.30;3.43;;;23.60;54.70;;;;;;4978095;28;20466;-82
2022/05/05 09:30:20;;;;;;;4.10;3.50;;;23.60;54.60;;;;;;4994213;28;20412;-83
2022/05/05 09:32:51;;;;;;;3.60;3.20;;;23.60;54.60;;;;;;4994075;28;20434;-82
2022/05/05 09:35:22;;;;;;;5.30;4.07;;;23.60;54.60;;;;;;5058885;28;20471;-83
2022/05/05 09:37:50;;;;;;;4.23;3.83;;;23.60;54.60;;;;;;4976932;28;20420;-85
2022/05/05 09:40:18;;;;;;;4.00;3.60;;;23.60;54.60;;;;;;4993880;28;20428;-83
2022/05/05 09:42:49;;;;;;;4.30;3.23;;;23.60;54.60;;;;;;5061898;28;20436;-84
2022/05/05 09:45:24;;;;;;;3.83;3.33;;;23.60;54.70;;;;;;4977042;28;20429;-84
2022/05/05 09:48:01;;;;;;;3.60;3.30;;;23.60;54.60;;;;;;4977550;28;20484;-84
2022/05/05 09:50:32;;;;;;;4.50;3.60;;;23.60;54.60;;;;;;4992952;28;20412;-84
2022/05/05 09:58:38;;;;;;;4.33;3.57;;;23.60;54.60;;;;;;5012961;28;20447;-83
2022/05/05 10:04:26;;;;;;;4.27;3.40;;;23.60;54.70;;;;;;5012843;28;20484;-83
2022/05/05 10:06:57;;;;;;;3.90;3.50;;;23.60;54.70;;;;;;5013330;28;20424;-82
2022/05/05 10:09:23;;;;;;;3.90;3.03;;;23.60;54.70;;;;;;4996999;28;20431;-83
2022/05/05 10:11:50;;;;;;;4.23;3.57;;;23.60;54.80;;;;;;5014881;28;20448;-83
2022/05/05 10:14:16;;;;;;;4.17;3.53;;;23.60;54.70;;;;;;5013817;28;20412;-83
2022/05/05 10:16:43;;;;;;;4.77;4.03;;;23.60;54.60;;;;;;5012894;28;20527;-83
2022/05/05 10:19:09;;;;;;;3.80;3.43;;;23.60;54.60;;;;;;5013650;28;20432;-83
2022/05/05 10:21:51;;;;;;;3.80;3.03;;;23.60;54.60;;;;;;5014829;28;20421;-83
2022/05/05 10:24:50;;;;;;;3.80;3.40;;;23.60;54.60;;;;;;5014057;28;20389;-83
2022/05/05 10:27:17;;;;;;;3.70;3.23;;;23.70;54.70;;;;;;5015297;28;20421;-83
2022/05/05 10:29:46;;;;;;;4.87;3.77;;;23.60;54.60;;;;;;5012457;28;20420;-83
2022/05/05 10:32:24;;;;;;;4.30;3.67;;;23.60;54.60;;;;;;4997528;28;20416;-83
2022/05/05 10:35:35;;;;;;;4.40;3.17;;;23.60;54.60;;;;;;5012705;28;20424;-82
2022/05/05 10:38:01;;;;;;;4.50;3.47;;;23.70;54.70;;;;;;5094570;28;20440;-85
2022/05/05 10:40:43;;;;;;;4.30;3.40;;;23.60;54.60;;;;;;5062677;28;20423;-86
2022/05/05 10:43:10;;;;;;;3.67;2.93;;;23.60;54.60;;;;;;5062239;28;20416;-85
2022/05/05 10:45:37;;;;;;;3.60;2.90;;;23.60;54.60;;;;;;5095609;28;20464;-85
2022/05/05 10:48:06;;;;;;;3.63;3.33;;;23.60;54.60;;;;;;5078850;28;20417;-85
2022/05/05 10:50:49;;;;;;;3.60;3.30;;;23.70;54.70;;;;;;5078460;28;20413;-85
2022/05/05 10:53:29;;;;;;;4.80;3.90;;;23.70;54.70;;;;;;5095327;28;20400;-85
2022/05/05 10:55:55;;;;;;;3.63;3.20;;;23.70;54.70;;;;;;5095318;28;20482;-83
2022/05/05 10:59:03;;;;;;;4.50;3.57;;;23.60;54.60;;;;;;5094775;28;20866;-85
2022/05/05 11:01:33;;;;;;;4.03;3.43;;;23.60;54.60;;;;;;5077881;28;20462;-85
2022/05/05 11:04:07;;;;;;;3.73;3.13;;;23.60;54.60;;;;;;5093893;28;20432;-86
2022/05/05 11:06:36;;;;;;;4.20;3.80;;;23.70;54.70;;;;;;5095021;28;20412;-86
2022/05/05 11:09:03;;;;;;;4.30;3.20;;;23.60;54.60;;;;;;5077620;28;20405;-86
2022/05/05 11:11:42;;;;;;;3.87;3.47;;;23.70;54.70;;;;;;5094635;28;20408;-85
2022/05/05 11:23:09;;;;;;;4.23;3.33;;;23.60;54.70;;;;;;4992295;28;20404;-85
2022/05/05 11:25:42;;;;;;;6.20;4.17;;;23.60;54.70;;;;;;4993071;28;20417;-85
2022/05/05 11:28:09;;;;;;;4.00;3.40;;;23.60;54.70;;;;;;4993299;28;20441;-85
2022/05/05 11:30:43;;;;;;;4.60;4.00;;;23.60;54.70;;;;;;4992247;28;20421;-85
2022/05/05 11:33:09;;;;;;;3.80;3.17;;;23.60;54.70;;;;;;4993337;28;20417;-85
2022/05/05 11:35:35;;;;;;;4.70;3.90;;;23.70;54.80;;;;;;4991878;28;20506;-85
2022/05/05 11:38:02;;;;;;;5.37;4.57;;;23.60;54.60;;;;;;4993740;28;20174;-85
2022/05/05 11:40:36;;;;;;;5.53;4.03;;;23.70;54.70;;;;;;4993781;28;20182;-85
2022/05/05 11:46:00;;;;;;;6.03;4.10;;;23.70;54.70;;;;;;4993542;28;20399;-85
2022/05/05 11:48:26;;;;;;;6.30;5.00;;;23.70;54.80;;;;;;4992181;28;20417;-85
2022/05/05 11:50:52;;;;;;;4.60;3.90;;;23.70;54.80;;;;;;4993184;28;20418;-85
2022/05/05 11:53:24;;;;;;;5.90;4.33;;;23.70;54.80;;;;;;5003323;28;20424;-85
2022/05/05 11:55:54;;;;;;;7.00;4.77;;;23.60;54.70;;;;;;5011477;28;20234;-85
2022/05/05 12:04:02;;;;;;;6.83;4.60;;;23.70;54.80;;;;;;5007187;28;20411;-85
2022/05/05 12:06:30;;;;;;;6.80;4.27;;;23.60;54.70;;;;;;4991544;28;20431;-84
2022/05/05 12:08:59;;;;;;;6.87;5.67;;;23.60;54.70;;;;;;5007624;28;20435;-85
2022/05/05 12:11:31;;;;;;;9.23;6.07;;;23.70;54.80;;;;;;5008451;28;20492;-85
2022/05/05 12:17:46;;;;;;;7.80;5.27;;;23.70;54.80;;;;;;5012093;28;20961;-85
2022/05/05 12:20:16;;;;;;;6.70;5.97;;;23.60;54.70;;;;;;5012111;28;20419;-85
2022/05/05 12:22:54;;;;;;;6.90;4.83;;;23.60;54.80;;;;;;5011604;28;20430;-85
2022/05/05 12:25:20;;;;;;;8.73;5.20;;;23.60;54.80;;;;;;5011359;28;20423;-85
2022/05/05 12:28:19;;;;;;;6.57;5.20;;;23.60;54.80;;;;;;5010640;28;20428;-85
2022/05/05 12:30:48;;;;;;;6.43;4.77;;;23.70;54.80;;;;;;4987115;28;20432;-85
2022/05/05 12:33:17;;;;;;;7.60;5.00;;;23.60;54.80;;;;;;4989862;28;20429;-85
2022/05/05 12:35:47;;;;;;;9.77;6.13;;;23.60;54.70;;;;;;4972899;28;20231;-85
2022/05/05 12:38:17;;;;;;;9.00;6.53;;;23.60;54.70;;;;;;4990199;28;20425;-85
2022/05/05 12:41:09;;;;;;;8.27;6.67;;;23.60;54.70;;;;;;4970448;28;20441;-85
2022/05/05 12:43:37;;;;;;;7.00;5.73;;;23.60;54.70;;;;;;4973271;28;20417;-85
2022/05/05 12:46:05;;;;;;;11.73;6.87;;;23.60;54.80;;;;;;4990248;28;20451;-85
2022/05/05 12:48:39;;;;;;;10.43;6.00;;;23.60;54.70;;;;;;4989665;28;20411;-85
2022/05/05 12:51:15;;;;;;;11.90;7.33;;;23.60;54.80;;;;;;4990132;28;20424;-85
2022/05/05 12:59:37;;;;;;;9.83;5.97;;;23.60;54.80;;;;;;4989291;28;20420;-84
2022/05/05 13:02:05;;;;;;;9.83;6.37;;;23.60;54.80;;;;;;4987512;28;20463;-84
2022/05/05 13:04:49;;;;;;;10.70;7.30;;;23.60;54.90;;;;;;4969599;28;20441;-85
2022/05/05 13:07:28;;;;;;;9.33;6.93;;;23.60;54.80;;;;;;4994756;28;20424;-84
2022/05/05 13:09:54;;;;;;;10.27;6.90;;;23.60;54.80;;;;;;5012520;28;20417;-84
2022/05/05 13:12:41;;;;;;;7.97;7.07;;;23.60;54.90;;;;;;5005742;28;20441;-83
2022/05/05 13:15:13;;;;;;;12.70;7.80;;;23.60;54.80;;;;;;5004426;28;20446;-83
2022/05/05 13:17:39;;;;;;;11.03;7.17;;;23.60;54.80;;;;;;4995104;28;20421;-83
2022/05/05 13:20:12;;;;;;;9.63;7.47;;;23.60;54.80;;;;;;5027241;28;20424;-83
2022/05/05 13:22:41;;;;;;;12.50;7.97;;;23.70;54.80;;;;;;5010359;28;20428;-84
2022/05/05 13:25:09;;;;;;;13.30;7.40;;;23.70;54.90;;;;;;5010721;28;20412;-84
2022/05/05 13:27:42;;;;;;;10.43;7.00;;;23.70;54.90;;;;;;5010763;28;20488;-84
2022/05/05 13:30:11;;;;;;;15.10;8.40;;;23.70;54.90;;;;;;5002709;28;20420;-84
2022/05/05 13:32:45;;;;;;;9.90;7.40;;;23.70;54.90;;;;;;4993812;28;20438;-84
2022/05/05 13:35:16;;;;;;;9.83;6.97;;;23.60;54.90;;;;;;5010595;28;20492;-84
2022/05/05 13:37:44;;;;;;;11.07;7.10;;;23.70;55.00;;;;;;5010398;28;20439;-84
2022/05/05 13:40:12;;;;;;;10.70;7.60;;;23.70;55.00;;;;;;5011462;28;20412;-85
2022/05/05 13:42:38;;;;;;;11.47;8.23;;;23.70;55.00;;;;;;4988669;28;20429;-84
2022/05/05 13:45:11;;;;;;;8.40;7.20;;;23.70;55.00;;;;;;5007410;28;20425;-84
2022/05/05 13:47:38;;;;;;;9.23;7.30;;;23.70;55.00;;;;;;5007811;28;20431;-84
2022/05/05 13:50:07;;;;;;;9.97;6.93;;;23.70;55.00;;;;;;4999431;28;20425;-84
2022/05/05 13:52:34;;;;;;;11.13;6.43;;;23.70;54.90;;;;;;4999713;28;20437;-84
2022/05/05 13:55:06;;;;;;;8.53;6.43;;;23.70;55.00;;;;;;5001530;28;20424;-84
2022/05/05 13:57:40;;;;;;;11.67;7.20;;;23.70;54.90;;;;;;5010522;28;20458;-85
2022/05/05 14:00:08;;;;;;;10.03;6.93;;;23.70;54.90;;;;;;5006203;28;20436;-84
2022/05/05 14:02:58;;;;;;;8.20;6.30;;;23.70;54.90;;;;;;4991091;28;20429;-84